KBMG/BMG METAR and TAF weather

Enter ICAO airport designator
Station Type Date Time Source
KBMG METAR 2019/08/24 19:53 UTC NOAA

KBMG 241953Z 08008KT 030V110 10SM BKN050 25/12 A3015 RMK AO2 SLP204 T02500122


Station Type Date Time Source
KBMG Decoded METAR 2019/08/24 19:53 UTC NOAA

Station name not available
Aug 24, 2019 - 03:53 PM EDT / 2019.08.24 1953 UTC
Wind: from the E (080 degrees) at 9 MPH (8 KT) (direction variable):0
Visibility: 10 mile(s):0
Sky conditions: mostly cloudy
Temperature: 77.0 F (25.0 C)
Dew Point: 54.0 F (12.2 C)
Relative Humidity: 44%
Pressure (altimeter): 30.15 in. Hg (1020 hPa)
ob: KBMG 241953Z 08008KT 030V110 10SM BKN050 25/12 A3015 RMK AO2 SLP204 T02500122
cycle: 20

Station Type Date Time Source
KBMG TAF 2019/08/24 20:27 UTC NOAA

TAF
AMD KBMG 242026Z 2420/2518 08011KT P6SM SCT045 SCT250
FM250300 VRB04KT P6SM FEW250
FM251600 09005KT P6SM BKN250

Example: see airport list